Etusivu
METAR-TAF:

METAR-TAF

Lentoasemat :

Andøya, Norja

Leveyspiiri: 69-18N, Pituuspiiri: 016-09E, korkeus merenpinnasta: 1 m

Tämänhetkinen sää

Tämä raportti tehtiin 34 minuuttia sitten, kello 03.50 UTC
Tuuli 14 kn lännestä
Lämpötila 3°C
Kosteus 75%
Ilmanpaine 1034 hPa
Näkyvyys 10 km tai enemmän

METAR: ENAN 210350Z AUTO 26014KT 9999 OVC022/// 03/M01 Q1034

Aika: 05:24 (04:24 UTC)

Sääennuste

Ennuste voimassa 21. päivästä klo 00 UTC - 21. päivään klo 24 UTC
Tuuli 12 kn lännestä
Näkyvyys 10 km tai enemmän
Hajonneita pilviä 2500 ft:n korkeudessa
Ajoittain
21. päivästä klo 15 UTC - 21. päivään klo 24 UTC
Hajonneita pilviä 1200 ft:n korkeudessa

TAF: ENAN 2100/2124 28012KT 9999 BKN025 TEMPO 2115/2124 BKN012

Säähavainnot ja -ennusteet yli 4000 lentoasemalta (METAR- ja TAF-raportit).

Käytössä olevat sääasemat on merkitty karttaan keltaisilla ja punaisilla pisteillä.

Aseta hiiri pisteen päälle nähdäksesi sääaseman nimen.

Klikkaa sitten nähdäksesi säähavainnot ja -ennusteet.

Kartan vaihtaminen: klikkaa mustalla rastilla varustettuja vihreitä pisteitä, niin voit zoomata sisään; viivalla varustettua vihreää pistettä, niin voit zoomata ulos tai vihreitä nuolia, niin pääset viereisille kartoille.


METAR-TAF: